Morehouse, Missouri
Current Conditions -  °F | °C
As of 10:53 PM on Tuesday 25 Nov 2014 (Local Time) from KCGI Reporting Station
Clear Clear  
Wind Chill: 21°   Ceiling: Unl
Heat Index: 26°   Visibility: 10mi
Dew Point: 24°   Wind: 5mph
Humidity: 92%   Direction: 110°ESE
Pressure: 30.19"   Gusts: NA
Location:  36.85°N, 89.69°W
Report Text: KCGI 260453Z AUTO 11004KT 10SM CLR M03/M04 A3019 RMK AO2 SLP224 T10331044 TSNO
Loading
Personal Weather Stations






























Interactive Weather Map New forecast layout! Learn more

10-Day Weather Forecast

Advertisements
Track Severe Weather on mobile